CFG7NY EDDB-EDDF
Flight info
| Callsign | CFG7NY |
|---|---|
| Flight time | 0h 44m |
| Altitude | 24000 |
| Route | SUKIP3B SUKIP DCT MAXAN DCT ORTAG/N0410F220 T177 ODIPI/N0404F210 T157 KERAX KERAX5A |
| Aircraft | A320/M-SDE3FGHIRWY/LB1 |
Departure
| Time | 2026-05-05 20:19 |
|---|---|
| Airport | Berlin Brandenburg Airport (EDDB) |
Arrival
| Time | 2026-05-05 21:04 |
|---|---|
| Airport | Frankfurt Main Airport (EDDF) |
| Time | Latitude | Longitude | Altitude | Speed | Heading |
|---|---|---|---|---|---|
| 2026-05-05 19:40 | 52.36062 | 13.51052 | 155 ft | 0 kts | 339° |
| 2026-05-05 20:06 | 52.36045 | 13.51062 | 155 ft | 3 kts | 339° |
| 2026-05-05 20:07 | 52.36025 | 13.51075 | 155 ft | 3 kts | 338° |
| 2026-05-05 20:07 | 52.36008 | 13.51086 | 155 ft | 3 kts | 325° |
| 2026-05-05 20:07 | 52.35994 | 13.51109 | 155 ft | 3 kts | 290° |
| 2026-05-05 20:07 | 52.35992 | 13.51139 | 155 ft | 2 kts | 249° |
| 2026-05-05 20:08 | 52.35993 | 13.51141 | 155 ft | 0 kts | 249° |
| 2026-05-05 20:10 | 52.35985 | 13.51108 | 155 ft | 6 kts | 249° |
| 2026-05-05 20:11 | 52.35969 | 13.51043 | 155 ft | 7 kts | 249° |
| 2026-05-05 20:11 | 52.35948 | 13.50953 | 155 ft | 11 kts | 249° |
| 2026-05-05 20:11 | 52.35918 | 13.50828 | 155 ft | 11 kts | 249° |
| 2026-05-05 20:11 | 52.35890 | 13.50713 | 155 ft | 10 kts | 249° |
| 2026-05-05 20:12 | 52.35851 | 13.50629 | 154 ft | 9 kts | 200° |
| 2026-05-05 20:12 | 52.35813 | 13.50641 | 154 ft | 5 kts | 156° |
| 2026-05-05 20:12 | 52.35776 | 13.50667 | 157 ft | 6 kts | 157° |
| 2026-05-05 20:12 | 52.35737 | 13.50692 | 154 ft | 6 kts | 161° |
| 2026-05-05 20:13 | 52.35691 | 13.50671 | 154 ft | 8 kts | 226° |
| 2026-05-05 20:13 | 52.35663 | 13.50563 | 154 ft | 12 kts | 249° |
| 2026-05-05 20:13 | 52.35633 | 13.50440 | 154 ft | 11 kts | 249° |
| 2026-05-05 20:13 | 52.35601 | 13.50305 | 154 ft | 15 kts | 249° |
| 2026-05-05 20:14 | 52.35561 | 13.50136 | 154 ft | 16 kts | 249° |
| 2026-05-05 20:14 | 52.35524 | 13.49979 | 154 ft | 14 kts | 249° |
| 2026-05-05 20:14 | 52.35485 | 13.49814 | 156 ft | 16 kts | 249° |
| 2026-05-05 20:14 | 52.35447 | 13.49651 | 154 ft | 14 kts | 249° |
| 2026-05-05 20:15 | 52.35412 | 13.49504 | 154 ft | 13 kts | 249° |
| 2026-05-05 20:15 | 52.35379 | 13.49367 | 154 ft | 13 kts | 248° |
| 2026-05-05 20:15 | 52.35346 | 13.49231 | 154 ft | 12 kts | 248° |
| 2026-05-05 20:15 | 52.35316 | 13.49105 | 154 ft | 13 kts | 249° |
| 2026-05-05 20:16 | 52.35283 | 13.48962 | 154 ft | 13 kts | 249° |
| 2026-05-05 20:16 | 52.35252 | 13.48831 | 154 ft | 12 kts | 249° |
| 2026-05-05 20:16 | 52.35220 | 13.48698 | 154 ft | 13 kts | 248° |
| 2026-05-05 20:16 | 52.35187 | 13.48563 | 154 ft | 12 kts | 248° |
| 2026-05-05 20:17 | 52.35125 | 13.48540 | 154 ft | 10 kts | 143° |
| 2026-05-05 20:17 | 52.35099 | 13.48651 | 154 ft | 13 kts | 99° |
| 2026-05-05 20:17 | 52.35082 | 13.48810 | 154 ft | 15 kts | 99° |
| 2026-05-05 20:17 | 52.35060 | 13.48934 | 154 ft | 7 kts | 132° |
| 2026-05-05 20:18 | 52.35047 | 13.48975 | 154 ft | 3 kts | 82° |
| 2026-05-05 20:18 | 52.35050 | 13.48989 | 154 ft | 6 kts | 70° |
| 2026-05-05 20:18 | 52.35165 | 13.49460 | 154 ft | 81 kts | 68° |
| 2026-05-05 20:18 | 52.35447 | 13.50643 | 155 ft | 139 kts | 68° |
| 2026-05-05 20:19 | 52.35835 | 13.52319 | 434 ft | 160 kts | 68° |
| 2026-05-05 20:19 | 52.35943 | 13.53983 | 1457 ft | 142 kts | 103° |
| 2026-05-05 20:19 | 52.35330 | 13.55278 | 2041 ft | 158 kts | 149° |
| 2026-05-05 20:19 | 52.34211 | 13.55599 | 2597 ft | 171 kts | 185° |
| 2026-05-05 20:20 | 52.33023 | 13.55153 | 3156 ft | 182 kts | 197° |
| 2026-05-05 20:20 | 52.31875 | 13.54120 | 3567 ft | 202 kts | 226° |
| 2026-05-05 20:20 | 52.31092 | 13.52074 | 3866 ft | 224 kts | 242° |
| 2026-05-05 20:20 | 52.30345 | 13.49765 | 4204 ft | 247 kts | 242° |
| 2026-05-05 20:21 | 52.29508 | 13.47159 | 4715 ft | 268 kts | 242° |
| 2026-05-05 20:21 | 52.28630 | 13.44429 | 5584 ft | 273 kts | 242° |
| 2026-05-05 20:21 | 52.27745 | 13.41676 | 6510 ft | 276 kts | 242° |
| 2026-05-05 20:21 | 52.26853 | 13.38890 | 7429 ft | 278 kts | 242° |
| 2026-05-05 20:22 | 52.25950 | 13.36075 | 8359 ft | 280 kts | 242° |
| 2026-05-05 20:22 | 52.25039 | 13.33246 | 9295 ft | 282 kts | 242° |
| 2026-05-05 20:22 | 52.24117 | 13.30392 | 10123 ft | 288 kts | 242° |
| 2026-05-05 20:22 | 52.23146 | 13.27387 | 10425 ft | 312 kts | 241° |
| 2026-05-05 20:23 | 52.22098 | 13.24149 | 10670 ft | 335 kts | 241° |
| 2026-05-05 20:23 | 52.20982 | 13.20704 | 11121 ft | 348 kts | 241° |
| 2026-05-05 20:23 | 52.19847 | 13.17208 | 11805 ft | 354 kts | 241° |
| 2026-05-05 20:23 | 52.18690 | 13.13654 | 12573 ft | 357 kts | 241° |
| 2026-05-05 20:24 | 52.17523 | 13.10071 | 13354 ft | 359 kts | 241° |
| 2026-05-05 20:24 | 52.16351 | 13.06470 | 14055 ft | 362 kts | 241° |
| 2026-05-05 20:24 | 52.15168 | 13.02833 | 14723 ft | 365 kts | 241° |
| 2026-05-05 20:24 | 52.13974 | 12.99166 | 15379 ft | 368 kts | 241° |
| 2026-05-05 20:25 | 52.12769 | 12.95479 | 16036 ft | 371 kts | 240° |
| 2026-05-05 20:25 | 52.11553 | 12.91767 | 16673 ft | 374 kts | 240° |
| 2026-05-05 20:25 | 52.10322 | 12.88019 | 17330 ft | 377 kts | 240° |
| 2026-05-05 20:25 | 52.09080 | 12.84240 | 17985 ft | 380 kts | 240° |
| 2026-05-05 20:26 | 52.07827 | 12.80429 | 18519 ft | 385 kts | 240° |
| 2026-05-05 20:26 | 52.06560 | 12.76581 | 19076 ft | 387 kts | 240° |
| 2026-05-05 20:26 | 52.05284 | 12.72708 | 19640 ft | 390 kts | 240° |
| 2026-05-05 20:26 | 52.04000 | 12.68824 | 20196 ft | 392 kts | 240° |
| 2026-05-05 20:27 | 52.02703 | 12.64905 | 20743 ft | 395 kts | 240° |
| 2026-05-05 20:27 | 52.01400 | 12.60974 | 21280 ft | 397 kts | 240° |
| 2026-05-05 20:27 | 52.00087 | 12.57013 | 21794 ft | 399 kts | 240° |
| 2026-05-05 20:27 | 51.98767 | 12.53038 | 22291 ft | 402 kts | 240° |
| 2026-05-05 20:28 | 51.97432 | 12.49030 | 22793 ft | 404 kts | 240° |
| 2026-05-05 20:28 | 51.96091 | 12.45013 | 23267 ft | 406 kts | 240° |
| 2026-05-05 20:28 | 51.95198 | 12.42343 | 23542 ft | 408 kts | 240° |
| 2026-05-05 20:28 | 51.93842 | 12.38297 | 23766 ft | 409 kts | 240° |
| 2026-05-05 20:29 | 51.92471 | 12.34212 | 23827 ft | 417 kts | 240° |
| 2026-05-05 20:29 | 51.91069 | 12.30042 | 23825 ft | 424 kts | 240° |
| 2026-05-05 20:29 | 51.89654 | 12.25837 | 23837 ft | 426 kts | 240° |
| 2026-05-05 20:29 | 51.87775 | 12.20252 | 23820 ft | 427 kts | 240° |
| 2026-05-05 20:30 | 51.86346 | 12.16019 | 23828 ft | 429 kts | 240° |
| 2026-05-05 20:30 | 51.85382 | 12.13170 | 23828 ft | 429 kts | 240° |
| 2026-05-05 20:30 | 51.83947 | 12.08940 | 23822 ft | 429 kts | 240° |
| 2026-05-05 20:30 | 51.82508 | 12.04708 | 23823 ft | 429 kts | 240° |
| 2026-05-05 20:31 | 51.81074 | 12.00490 | 23831 ft | 429 kts | 240° |
| 2026-05-05 20:31 | 51.79636 | 11.96257 | 23823 ft | 429 kts | 240° |
| 2026-05-05 20:31 | 51.78202 | 11.92038 | 23824 ft | 429 kts | 240° |
| 2026-05-05 20:31 | 51.76765 | 11.87818 | 23821 ft | 429 kts | 240° |
| 2026-05-05 20:32 | 51.75327 | 11.83609 | 23820 ft | 428 kts | 240° |
| 2026-05-05 20:32 | 51.73883 | 11.79397 | 23819 ft | 428 kts | 240° |
| 2026-05-05 20:32 | 51.72440 | 11.75196 | 23818 ft | 428 kts | 239° |
| 2026-05-05 20:32 | 51.70996 | 11.71001 | 23816 ft | 428 kts | 239° |
| 2026-05-05 20:33 | 51.69551 | 11.66811 | 23822 ft | 428 kts | 239° |
| 2026-05-05 20:33 | 51.68097 | 11.62604 | 23812 ft | 429 kts | 239° |
| 2026-05-05 20:33 | 51.66648 | 11.58405 | 23807 ft | 430 kts | 239° |
| 2026-05-05 20:33 | 51.65196 | 11.54202 | 23804 ft | 430 kts | 239° |
| 2026-05-05 20:34 | 51.63738 | 11.49991 | 23801 ft | 430 kts | 239° |
| 2026-05-05 20:34 | 51.62279 | 11.45791 | 23805 ft | 430 kts | 239° |
| 2026-05-05 20:34 | 51.60812 | 11.41578 | 23805 ft | 431 kts | 239° |
| 2026-05-05 20:34 | 51.59347 | 11.37377 | 23804 ft | 431 kts | 239° |
| 2026-05-05 20:35 | 51.57884 | 11.33182 | 23804 ft | 431 kts | 239° |
| 2026-05-05 20:35 | 51.56415 | 11.28975 | 23803 ft | 431 kts | 239° |
| 2026-05-05 20:35 | 51.54959 | 11.24815 | 23800 ft | 431 kts | 238° |
| 2026-05-05 20:35 | 51.53490 | 11.20628 | 23801 ft | 431 kts | 238° |
| 2026-05-05 20:36 | 51.52017 | 11.16432 | 23801 ft | 431 kts | 238° |
| 2026-05-05 20:36 | 51.50540 | 11.12233 | 23795 ft | 432 kts | 238° |
| 2026-05-05 20:36 | 51.49061 | 11.08038 | 23811 ft | 432 kts | 238° |
| 2026-05-05 20:36 | 51.47579 | 11.03845 | 23803 ft | 432 kts | 238° |
| 2026-05-05 20:37 | 51.46100 | 10.99663 | 23804 ft | 432 kts | 238° |
| 2026-05-05 20:37 | 51.44613 | 10.95465 | 23802 ft | 432 kts | 238° |
| 2026-05-05 20:37 | 51.43126 | 10.91275 | 23800 ft | 432 kts | 238° |
| 2026-05-05 20:37 | 51.41639 | 10.87094 | 23800 ft | 432 kts | 238° |
| 2026-05-05 20:38 | 51.40150 | 10.82912 | 23792 ft | 432 kts | 238° |
| 2026-05-05 20:38 | 51.38687 | 10.78816 | 23792 ft | 432 kts | 237° |
| 2026-05-05 20:38 | 51.37168 | 10.74561 | 23788 ft | 432 kts | 237° |
| 2026-05-05 20:38 | 51.35674 | 10.70386 | 23788 ft | 432 kts | 237° |
| 2026-05-05 20:39 | 51.34182 | 10.66221 | 23787 ft | 432 kts | 237° |
| 2026-05-05 20:39 | 51.32684 | 10.62044 | 23785 ft | 432 kts | 237° |
| 2026-05-05 20:39 | 51.31186 | 10.57874 | 23782 ft | 433 kts | 237° |
| 2026-05-05 20:39 | 51.29682 | 10.53708 | 23785 ft | 433 kts | 237° |
| 2026-05-05 20:40 | 51.28171 | 10.49534 | 23784 ft | 435 kts | 237° |
| 2026-05-05 20:40 | 51.26491 | 10.45529 | 23780 ft | 433 kts | 229° |
| 2026-05-05 20:40 | 51.24678 | 10.41922 | 23769 ft | 434 kts | 229° |
| 2026-05-05 20:40 | 51.22785 | 10.38170 | 23774 ft | 434 kts | 229° |
| 2026-05-05 20:41 | 51.20891 | 10.34416 | 23771 ft | 435 kts | 229° |
| 2026-05-05 20:41 | 51.18989 | 10.30662 | 23776 ft | 435 kts | 227° |
| 2026-05-05 20:41 | 51.16855 | 10.27295 | 23780 ft | 432 kts | 217° |
| 2026-05-05 20:41 | 51.14376 | 10.24621 | 23778 ft | 429 kts | 207° |
| 2026-05-05 20:42 | 51.11647 | 10.22725 | 23783 ft | 428 kts | 197° |
| 2026-05-05 20:42 | 51.08760 | 10.21648 | 23777 ft | 427 kts | 186° |
| 2026-05-05 20:42 | 51.05798 | 10.21383 | 23777 ft | 427 kts | 180° |
| 2026-05-05 20:42 | 51.02827 | 10.21339 | 23775 ft | 428 kts | 180° |
| 2026-05-05 20:43 | 50.99844 | 10.21290 | 23779 ft | 429 kts | 180° |
| 2026-05-05 20:43 | 50.96858 | 10.21236 | 23783 ft | 429 kts | 180° |
| 2026-05-05 20:43 | 50.93871 | 10.21180 | 23783 ft | 430 kts | 180° |
| 2026-05-05 20:43 | 50.90892 | 10.21123 | 23782 ft | 430 kts | 180° |
| 2026-05-05 20:44 | 50.87925 | 10.21069 | 23788 ft | 430 kts | 180° |
| 2026-05-05 20:44 | 50.84989 | 10.20738 | 23566 ft | 422 kts | 189° |
| 2026-05-05 20:44 | 50.82214 | 10.19545 | 23401 ft | 407 kts | 200° |
| 2026-05-05 20:44 | 50.79746 | 10.17451 | 22987 ft | 402 kts | 214° |
| 2026-05-05 20:45 | 50.76367 | 10.10501 | 21728 ft | 402 kts | 243° |
| 2026-05-05 20:45 | 50.75175 | 10.06556 | 21329 ft | 397 kts | 242° |
| 2026-05-05 20:45 | 50.73958 | 10.02654 | 20918 ft | 393 kts | 242° |
| 2026-05-05 20:46 | 50.72733 | 9.98824 | 20510 ft | 390 kts | 241° |
| 2026-05-05 20:46 | 50.71500 | 9.95021 | 20114 ft | 387 kts | 241° |
| 2026-05-05 20:46 | 50.70274 | 9.91260 | 19724 ft | 385 kts | 241° |
| 2026-05-05 20:46 | 50.69058 | 9.87519 | 19336 ft | 382 kts | 241° |
| 2026-05-05 20:47 | 50.67853 | 9.83800 | 18957 ft | 380 kts | 241° |
| 2026-05-05 20:47 | 50.66658 | 9.80105 | 18580 ft | 377 kts | 241° |
| 2026-05-05 20:47 | 50.65470 | 9.76433 | 18199 ft | 375 kts | 240° |
| 2026-05-05 20:47 | 50.64104 | 9.72973 | 17793 ft | 370 kts | 231° |
| 2026-05-05 20:48 | 50.62424 | 9.69941 | 17362 ft | 367 kts | 223° |
| 2026-05-05 20:48 | 50.60601 | 9.67139 | 16940 ft | 365 kts | 227° |
| 2026-05-05 20:48 | 50.58962 | 9.64096 | 16527 ft | 363 kts | 229° |
| 2026-05-05 20:48 | 50.57358 | 9.61045 | 16117 ft | 361 kts | 229° |
| 2026-05-05 20:49 | 50.55761 | 9.58010 | 15715 ft | 359 kts | 229° |
| 2026-05-05 20:49 | 50.54175 | 9.55003 | 15283 ft | 357 kts | 229° |
| 2026-05-05 20:49 | 50.52594 | 9.52006 | 14792 ft | 355 kts | 229° |
| 2026-05-05 20:49 | 50.51024 | 9.49036 | 14302 ft | 352 kts | 229° |
| 2026-05-05 20:50 | 50.49465 | 9.46095 | 13833 ft | 350 kts | 229° |
| 2026-05-05 20:50 | 50.47898 | 9.43194 | 13323 ft | 347 kts | 229° |
| 2026-05-05 20:50 | 50.46319 | 9.40374 | 12780 ft | 337 kts | 229° |
| 2026-05-05 20:50 | 50.44808 | 9.37690 | 12266 ft | 320 kts | 229° |
| 2026-05-05 20:51 | 50.43369 | 9.35134 | 11758 ft | 306 kts | 229° |
| 2026-05-05 20:51 | 50.41989 | 9.32687 | 11259 ft | 294 kts | 229° |
| 2026-05-05 20:51 | 50.40676 | 9.30358 | 10741 ft | 284 kts | 229° |
| 2026-05-05 20:51 | 50.39366 | 9.28100 | 10209 ft | 276 kts | 223° |
| 2026-05-05 20:52 | 50.37754 | 9.26538 | 9681 ft | 271 kts | 206° |
| 2026-05-05 20:52 | 50.36041 | 9.25397 | 9155 ft | 263 kts | 204° |
| 2026-05-05 20:52 | 50.34375 | 9.24336 | 8681 ft | 254 kts | 204° |
| 2026-05-05 20:52 | 50.32763 | 9.23317 | 8213 ft | 246 kts | 204° |
| 2026-05-05 20:53 | 50.31217 | 9.22343 | 7764 ft | 240 kts | 204° |
| 2026-05-05 20:53 | 50.29667 | 9.21370 | 7316 ft | 242 kts | 204° |
| 2026-05-05 20:53 | 50.28096 | 9.20384 | 6867 ft | 243 kts | 204° |
| 2026-05-05 20:53 | 50.26563 | 9.19425 | 6540 ft | 234 kts | 204° |
| 2026-05-05 20:54 | 50.25041 | 9.18478 | 6390 ft | 233 kts | 204° |
| 2026-05-05 20:54 | 50.23541 | 9.17544 | 6169 ft | 231 kts | 204° |
| 2026-05-05 20:54 | 50.22065 | 9.16625 | 6019 ft | 230 kts | 204° |
| 2026-05-05 20:54 | 50.20641 | 9.15513 | 5981 ft | 229 kts | 212° |
| 2026-05-05 20:55 | 50.19288 | 9.14213 | 5986 ft | 229 kts | 214° |
| 2026-05-05 20:55 | 50.17939 | 9.12884 | 5987 ft | 229 kts | 214° |
| 2026-05-05 20:55 | 50.16686 | 9.11378 | 5980 ft | 227 kts | 230° |
| 2026-05-05 20:55 | 50.15908 | 9.09261 | 5988 ft | 227 kts | 249° |
| 2026-05-05 20:56 | 50.15373 | 9.06965 | 5984 ft | 220 kts | 250° |
| 2026-05-05 20:56 | 50.14881 | 9.04825 | 5982 ft | 205 kts | 250° |
| 2026-05-05 20:56 | 50.14414 | 9.02817 | 5993 ft | 189 kts | 249° |
| 2026-05-05 20:56 | 50.13981 | 9.00962 | 5968 ft | 177 kts | 249° |
| 2026-05-05 20:57 | 50.13570 | 8.99202 | 5769 ft | 174 kts | 249° |
| 2026-05-05 20:57 | 50.13153 | 8.97420 | 5548 ft | 172 kts | 249° |
| 2026-05-05 20:57 | 50.12743 | 8.95668 | 5327 ft | 172 kts | 249° |
| 2026-05-05 20:57 | 50.12340 | 8.93948 | 5099 ft | 171 kts | 249° |
| 2026-05-05 20:58 | 50.11927 | 8.92185 | 4883 ft | 171 kts | 249° |
| 2026-05-05 20:58 | 50.11529 | 8.90490 | 4658 ft | 170 kts | 249° |
| 2026-05-05 20:58 | 50.11123 | 8.88758 | 4425 ft | 170 kts | 249° |
| 2026-05-05 20:58 | 50.10718 | 8.87035 | 4203 ft | 170 kts | 249° |
| 2026-05-05 20:59 | 50.10312 | 8.85308 | 3965 ft | 169 kts | 249° |
| 2026-05-05 20:59 | 50.09908 | 8.83593 | 3739 ft | 169 kts | 249° |
| 2026-05-05 20:59 | 50.09504 | 8.81878 | 3514 ft | 168 kts | 249° |
| 2026-05-05 20:59 | 50.09106 | 8.80188 | 3293 ft | 169 kts | 249° |
| 2026-05-05 21:00 | 50.08697 | 8.78455 | 3063 ft | 167 kts | 249° |
| 2026-05-05 21:00 | 50.08309 | 8.76810 | 2839 ft | 167 kts | 249° |
| 2026-05-05 21:00 | 50.07905 | 8.75101 | 2608 ft | 166 kts | 249° |
| 2026-05-05 21:00 | 50.07500 | 8.73390 | 2393 ft | 166 kts | 249° |
| 2026-05-05 21:01 | 50.07106 | 8.71722 | 2174 ft | 166 kts | 248° |
| 2026-05-05 21:01 | 50.06708 | 8.70041 | 1940 ft | 166 kts | 249° |
| 2026-05-05 21:01 | 50.06331 | 8.68451 | 1747 ft | 148 kts | 249° |
| 2026-05-05 21:01 | 50.05990 | 8.67013 | 1547 ft | 136 kts | 248° |
| 2026-05-05 21:02 | 50.05670 | 8.65664 | 1368 ft | 133 kts | 248° |
| 2026-05-05 21:02 | 50.05348 | 8.64310 | 1179 ft | 133 kts | 248° |
| 2026-05-05 21:02 | 50.05024 | 8.62947 | 1003 ft | 134 kts | 248° |
| 2026-05-05 21:02 | 50.04702 | 8.61588 | 811 ft | 135 kts | 249° |
| 2026-05-05 21:03 | 50.04379 | 8.60210 | 632 ft | 136 kts | 249° |
| 2026-05-05 21:03 | 50.04051 | 8.58838 | 448 ft | 135 kts | 248° |
| 2026-05-05 21:03 | 50.03728 | 8.57500 | 363 ft | 122 kts | 248° |
| 2026-05-05 21:03 | 50.03494 | 8.56501 | 353 ft | 73 kts | 250° |
| 2026-05-05 21:04 | 50.03365 | 8.55975 | 347 ft | 35 kts | 251° |
| 2026-05-05 21:04 | 50.03313 | 8.55675 | 346 ft | 25 kts | 263° |
| 2026-05-05 21:04 | 50.03324 | 8.55429 | 348 ft | 21 kts | 282° |
| 2026-05-05 21:04 | 50.03346 | 8.55211 | 342 ft | 20 kts | 278° |
| 2026-05-05 21:05 | 50.03362 | 8.55058 | 350 ft | 5 kts | 281° |
| 2026-05-05 21:05 | 50.03369 | 8.54998 | 342 ft | 6 kts | 276° |
| 2026-05-05 21:05 | 50.03361 | 8.54921 | 350 ft | 8 kts | 249° |
| 2026-05-05 21:05 | 50.03336 | 8.54818 | 340 ft | 11 kts | 249° |
| 2026-05-05 21:06 | 50.03301 | 8.54673 | 336 ft | 15 kts | 250° |
| 2026-05-05 21:06 | 50.03274 | 8.54539 | 336 ft | 11 kts | 273° |
| 2026-05-05 21:06 | 50.03322 | 8.54474 | 337 ft | 8 kts | 341° |
| 2026-05-05 21:06 | 50.03369 | 8.54448 | 339 ft | 6 kts | 340° |
| 2026-05-05 21:07 | 50.03385 | 8.54439 | 338 ft | 0 kts | 340° |
| 2026-05-05 21:11 | 50.03402 | 8.54429 | 336 ft | 6 kts | 340° |
| 2026-05-05 21:11 | 50.03432 | 8.54411 | 351 ft | 4 kts | 339° |
| 2026-05-05 21:11 | 50.03499 | 8.54372 | 348 ft | 12 kts | 339° |
| 2026-05-05 21:12 | 50.03549 | 8.54343 | 350 ft | 12 kts | 339° |
| 2026-05-05 21:12 | 50.03648 | 8.54317 | 350 ft | 10 kts | 32° |
| 2026-05-05 21:12 | 50.03685 | 8.54430 | 346 ft | 13 kts | 69° |
| 2026-05-05 21:12 | 50.03705 | 8.54513 | 343 ft | 11 kts | 69° |
| 2026-05-05 21:13 | 50.03745 | 8.54677 | 355 ft | 13 kts | 69° |
| 2026-05-05 21:13 | 50.03767 | 8.54771 | 351 ft | 15 kts | 70° |
| 2026-05-05 21:13 | 50.03805 | 8.54930 | 353 ft | 15 kts | 69° |
| 2026-05-05 21:13 | 50.03844 | 8.55089 | 350 ft | 16 kts | 69° |
| 2026-05-05 21:14 | 50.03884 | 8.55261 | 355 ft | 19 kts | 69° |
| 2026-05-05 21:14 | 50.03933 | 8.55469 | 350 ft | 22 kts | 70° |
| 2026-05-05 21:14 | 50.03988 | 8.55697 | 351 ft | 23 kts | 68° |
| 2026-05-05 21:14 | 50.04041 | 8.55918 | 354 ft | 22 kts | 70° |
| 2026-05-05 21:15 | 50.04091 | 8.56125 | 354 ft | 19 kts | 70° |
| 2026-05-05 21:15 | 50.04137 | 8.56321 | 354 ft | 18 kts | 70° |
| 2026-05-05 21:15 | 50.04182 | 8.56510 | 359 ft | 19 kts | 69° |
| 2026-05-05 21:15 | 50.04229 | 8.56705 | 361 ft | 19 kts | 70° |
| 2026-05-05 21:16 | 50.04264 | 8.56798 | 362 ft | 4 kts | 27° |
| 2026-05-05 21:16 | 50.04298 | 8.56812 | 360 ft | 6 kts | 13° |
| 2026-05-05 21:16 | 50.04344 | 8.56827 | 360 ft | 10 kts | 12° |
| 2026-05-05 21:16 | 50.04414 | 8.56846 | 364 ft | 10 kts | 7° |
| 2026-05-05 21:17 | 50.04468 | 8.56892 | 362 ft | 8 kts | 66° |
| 2026-05-05 21:17 | 50.04458 | 8.56925 | 359 ft | 2 kts | 141° |
| 2026-05-05 21:17 | 50.04440 | 8.56936 | 361 ft | 3 kts | 161° |
| 2026-05-05 21:17 | 50.04422 | 8.56946 | 363 ft | 3 kts | 159° |
| 2026-05-05 21:18 | 50.04399 | 8.56959 | 362 ft | 4 kts | 159° |
| 2026-05-05 21:18 | 50.04380 | 8.56971 | 360 ft | 0 kts | 159° |